Time;durP1;ratioP1;P1;durP2;ratioP2;P2;SDS_P1;SDS_P2;PMS_P1;PMS_P2;Temp;Humidity;BMP_temperature;BMP_pressure;BME280_temperature;BME280_humidity;BME280_pressure;Samples;Min_cycle;Max_cycle;Signal;HPM_P1;HPM_P2
2022/04/26 03:36:47;;;;;;;9.88;5.35;;;;;;;;;;4878219;29;20081;-76
2022/04/26 03:39:13;;;;;;;13.23;5.65;;;;;;;;;;4877988;29;20029;-77
2022/04/26 03:41:39;;;;;;;12.23;6.18;;;;;;;;;;4878197;29;20045;-77
2022/04/26 03:44:05;;;;;;;7.70;4.47;;;;;;;;;;4892540;29;20104;-77
2022/04/26 03:46:31;;;;;;;8.02;5.22;;;;;;;;;;4878280;29;20496;-77
2022/04/26 03:48:57;;;;;;;13.68;6.43;;;;;;;;;;4892412;29;20554;-76
2022/04/26 03:51:23;;;;;;;12.25;7.65;;;;;;;;;;4892354;29;21127;-77
2022/04/26 03:53:49;;;;;;;9.02;6.05;;;;;;;;;;4877805;29;20473;-76
2022/04/26 03:56:16;;;;;;;11.20;6.63;;;;;;;;;;4868982;29;20068;-77
2022/04/26 03:58:42;;;;;;;12.55;6.72;;;;;;;;;;4877669;29;20025;-76
2022/04/26 04:01:08;;;;;;;16.55;7.00;;;;;;;;;;4880953;29;20099;-78
2022/04/26 04:03:37;;;;;;;29.77;9.60;;;;;;;;;;4895810;29;20025;-77
2022/04/26 04:06:03;;;;;;;9.68;6.47;;;;;;;;;;4880771;29;20013;-76
2022/04/26 04:08:30;;;;;;;8.40;6.60;;;;;;;;;;4878995;29;20042;-76
2022/04/26 04:10:56;;;;;;;18.60;6.65;;;;;;;;;;4873165;29;20021;-78
2022/04/26 04:13:22;;;;;;;10.68;5.45;;;;;;;;;;4875926;29;20100;-76
2022/04/26 04:15:48;;;;;;;10.75;5.93;;;;;;;;;;4895975;29;20025;-77
2022/04/26 04:20:59;;;;;;;10.40;6.10;;;;;;;;;;4881137;29;20033;-76
2022/04/26 04:23:25;;;;;;;13.55;5.90;;;;;;;;;;4881424;29;20033;-76
2022/04/26 04:25:51;;;;;;;13.82;5.63;;;;;;;;;;4881419;29;20025;-76
2022/04/26 04:28:17;;;;;;;13.20;6.03;;;;;;;;;;4895597;29;20469;-78
2022/04/26 04:30:43;;;;;;;8.02;4.50;;;;;;;;;;4880889;29;20048;-76
2022/04/26 04:33:09;;;;;;;9.57;5.65;;;;;;;;;;4880467;29;20025;-76
2022/04/26 04:35:35;;;;;;;9.63;4.55;;;;;;;;;;4881262;29;20053;-76
2022/04/26 04:38:01;;;;;;;5.75;3.85;;;;;;;;;;4895532;29;20462;-77
2022/04/26 04:40:27;;;;;;;8.15;4.47;;;;;;;;;;4880828;29;20101;-77
2022/04/26 04:42:53;;;;;;;9.57;4.63;;;;;;;;;;4895320;29;20073;-76
2022/04/26 04:45:19;;;;;;;9.23;5.13;;;;;;;;;;4895428;29;20033;-76
2022/04/26 04:47:45;;;;;;;10.45;4.90;;;;;;;;;;4894835;29;20041;-75
2022/04/26 04:50:11;;;;;;;16.30;5.72;;;;;;;;;;4894457;29;20052;-75
2022/04/26 04:52:37;;;;;;;10.68;4.85;;;;;;;;;;4894576;29;20025;-75
2022/04/26 04:55:04;;;;;;;13.38;7.28;;;;;;;;;;4894486;29;20375;-75
2022/04/26 04:57:30;;;;;;;8.77;4.90;;;;;;;;;;4880265;29;20429;-76
2022/04/26 04:59:56;;;;;;;9.52;4.80;;;;;;;;;;4882693;29;20030;-76
2022/04/26 05:02:22;;;;;;;6.93;5.10;;;;;;;;;;4876218;29;20089;-75
2022/04/26 05:04:49;;;;;;;13.40;5.30;;;;;;;;;;4862166;29;20437;-75
2022/04/26 05:07:15;;;;;;;9.57;5.07;;;;;;;;;;4867474;29;20072;-76
2022/04/26 05:09:41;;;;;;;10.10;5.45;;;;;;;;;;4871099;29;20021;-76
2022/04/26 05:12:08;;;;;;;9.52;4.53;;;;;;;;;;4883138;29;20477;-76
2022/04/26 05:14:34;;;;;;;10.48;4.07;;;;;;;;;;4883187;29;20029;-78
2022/04/26 05:17:00;;;;;;;11.52;5.05;;;;;;;;;;4878130;29;20037;-76
2022/04/26 05:19:26;;;;;;;11.30;4.97;;;;;;;;;;4862729;29;20033;-77
2022/04/26 05:21:52;;;;;;;6.95;4.70;;;;;;;;;;4884369;29;20117;-77
2022/04/26 05:27:03;;;;;;;19.33;4.63;;;;;;;;;;4870069;29;20044;-76
2022/04/26 05:29:29;;;;;;;12.43;5.55;;;;;;;;;;4888064;29;20033;-77
2022/04/26 05:31:55;;;;;;;9.77;4.68;;;;;;;;;;4878991;29;20088;-78
2022/04/26 05:34:21;;;;;;;8.15;4.43;;;;;;;;;;4880077;29;20633;-78
2022/04/26 05:36:47;;;;;;;20.65;9.05;;;;;;;;;;4871491;29;20025;-79
2022/04/26 05:39:13;;;;;;;10.95;6.00;;;;;;;;;;4874650;29;20034;-77
2022/04/26 05:41:40;;;;;;;10.25;5.22;;;;;;;;;;4864267;29;20061;-77
2022/04/26 05:44:06;;;;;;;10.35;5.13;;;;;;;;;;4874283;29;20021;-77
2022/04/26 05:46:32;;;;;;;12.57;5.53;;;;;;;;;;4879165;29;20060;-77
2022/04/26 05:48:58;;;;;;;16.65;6.80;;;;;;;;;;4874403;29;20030;-77
2022/04/26 05:51:24;;;;;;;10.38;4.78;;;;;;;;;;4884792;29;20029;-78
2022/04/26 05:53:50;;;;;;;11.32;5.75;;;;;;;;;;4877942;29;20406;-77
2022/04/26 05:56:16;;;;;;;5.72;3.65;;;;;;;;;;4878077;29;20468;-77
2022/04/26 05:58:42;;;;;;;12.25;4.57;;;;;;;;;;4877964;29;20081;-78
2022/04/26 06:01:08;;;;;;;12.20;4.72;;;;;;;;;;4876691;29;20025;-77
2022/04/26 06:03:34;;;;;;;12.75;4.95;;;;;;;;;;4876741;29;20422;-77
2022/04/26 06:06:00;;;;;;;9.40;3.63;;;;;;;;;;4878094;29;20029;-79
2022/04/26 06:08:26;;;;;;;8.50;3.55;;;;;;;;;;4877574;29;20033;-77
2022/04/26 06:10:52;;;;;;;7.72;3.47;;;;;;;;;;4876959;29;20137;-77
2022/04/26 06:13:18;;;;;;;6.68;4.13;;;;;;;;;;4877295;29;20081;-77
2022/04/26 06:15:45;;;;;;;10.25;3.88;;;;;;;;;;4878029;29;20025;-77
2022/04/26 06:18:11;;;;;;;12.35;4.60;;;;;;;;;;4877167;29;20473;-77
2022/04/26 06:20:37;;;;;;;9.73;5.50;;;;;;;;;;4879385;29;20083;-77
2022/04/26 06:23:03;;;;;;;8.77;4.70;;;;;;;;;;4878484;29;20021;-80
2022/04/26 06:25:29;;;;;;;9.15;5.57;;;;;;;;;;4879378;29;20049;-79
2022/04/26 06:27:55;;;;;;;8.90;4.43;;;;;;;;;;4879346;29;20061;-79
2022/04/26 06:30:21;;;;;;;6.63;3.47;;;;;;;;;;4877184;29;20028;-79
2022/04/26 06:32:47;;;;;;;11.88;4.30;;;;;;;;;;4878948;29;20069;-78
2022/04/26 06:35:13;;;;;;;8.98;3.92;;;;;;;;;;4879022;29;20069;-79
2022/04/26 06:37:39;;;;;;;9.93;4.20;;;;;;;;;;4879143;29;20125;-77
2022/04/26 06:40:05;;;;;;;5.18;2.63;;;;;;;;;;4878787;29;20056;-78
2022/04/26 06:42:32;;;;;;;7.55;3.47;;;;;;;;;;4878882;29;20032;-78
2022/04/26 06:44:58;;;;;;;6.07;2.80;;;;;;;;;;4877784;29;20032;-77
2022/04/26 06:47:24;;;;;;;7.90;3.17;;;;;;;;;;4877634;29;20127;-78
2022/04/26 06:49:50;;;;;;;10.32;2.72;;;;;;;;;;4877649;29;20029;-79
2022/04/26 06:52:16;;;;;;;7.93;4.22;;;;;;;;;;4877548;29;20025;-77
2022/04/26 06:54:42;;;;;;;7.60;2.70;;;;;;;;;;4878849;29;20077;-78
2022/04/26 06:57:08;;;;;;;6.88;2.70;;;;;;;;;;4877334;29;20032;-77
2022/04/26 06:59:34;;;;;;;5.18;3.92;;;;;;;;;;4878829;29;20029;-79
2022/04/26 07:02:00;;;;;;;4.95;2.75;;;;;;;;;;4878448;29;20021;-78
2022/04/26 07:04:27;;;;;;;3.22;1.95;;;;;;;;;;4878906;29;20025;-77
2022/04/26 07:06:53;;;;;;;4.93;2.42;;;;;;;;;;4877474;29;20077;-77
2022/04/26 07:09:19;;;;;;;5.65;2.72;;;;;;;;;;4878284;29;20044;-78
2022/04/26 07:11:46;;;;;;;15.32;3.72;;;;;;;;;;4878771;29;20104;-78
2022/04/26 07:14:13;;;;;;;8.65;2.42;;;;;;;;;;4877253;29;20021;-78
2022/04/26 07:16:39;;;;;;;4.00;2.15;;;;;;;;;;4878429;29;20065;-76
2022/04/26 07:19:05;;;;;;;5.63;1.98;;;;;;;;;;4878454;29;20057;-78
2022/04/26 07:21:31;;;;;;;7.07;2.55;;;;;;;;;;4877074;29;20481;-77
2022/04/26 07:23:57;;;;;;;6.45;2.78;;;;;;;;;;4878451;29;20021;-76
2022/04/26 07:26:23;;;;;;;12.82;5.15;;;;;;;;;;4878215;29;20025;-77
2022/04/26 07:28:50;;;;;;;6.10;2.08;;;;;;;;;;4876960;29;20112;-79
2022/04/26 07:31:16;;;;;;;6.07;2.30;;;;;;;;;;4877162;29;20029;-76
2022/04/26 07:36:27;;;;;;;3.35;1.73;;;;;;;;;;4878022;29;20068;-77
2022/04/26 07:38:53;;;;;;;2.92;1.38;;;;;;;;;;4878478;29;20536;-78
2022/04/26 07:41:19;;;;;;;2.55;1.73;;;;;;;;;;4876429;29;20056;-78
2022/04/26 07:43:45;;;;;;;6.18;2.22;;;;;;;;;;4878451;29;20033;-79
2022/04/26 07:46:15;;;;;;;8.35;2.58;;;;;;;;;;4877339;29;20033;-77
2022/04/26 07:48:43;;;;;;;6.38;2.60;;;;;;;;;;4877259;29;20301;-78
2022/04/26 07:51:09;;;;;;;7.45;2.00;;;;;;;;;;4877550;29;20079;-77
2022/04/26 07:53:36;;;;;;;3.00;1.50;;;;;;;;;;4889048;29;20033;-78
2022/04/26 07:56:02;;;;;;;6.15;2.53;;;;;;;;;;4891761;29;20115;-78
2022/04/26 07:58:29;;;;;;;6.47;3.08;;;;;;;;;;4877439;29;20069;-78
2022/04/26 08:00:55;;;;;;;17.80;3.38;;;;;;;;;;4877504;29;20408;-76
2022/04/26 08:03:23;;;;;;;3.05;1.85;;;;;;;;;;4891997;29;20116;-75
2022/04/26 08:05:49;;;;;;;5.72;2.03;;;;;;;;;;4893189;29;20485;-76
2022/04/26 08:08:15;;;;;;;8.57;2.92;;;;;;;;;;4891272;29;20049;-77
2022/04/26 08:10:41;;;;;;;4.75;2.40;;;;;;;;;;4892000;29;20277;-78
2022/04/26 08:13:08;;;;;;;6.05;3.15;;;;;;;;;;4877916;29;20025;-79
2022/04/26 08:15:34;;;;;;;3.97;1.80;;;;;;;;;;4892425;29;20485;-77
2022/04/26 08:18:00;;;;;;;5.45;2.58;;;;;;;;;;4877356;29;20481;-76
2022/04/26 08:20:26;;;;;;;3.63;1.88;;;;;;;;;;4891982;29;20108;-79
2022/04/26 08:22:52;;;;;;;4.22;2.05;;;;;;;;;;4891910;29;20036;-77
2022/04/26 08:28:03;;;;;;;3.35;1.42;;;;;;;;;;4877454;29;20056;-78
2022/04/26 08:30:29;;;;;;;2.70;1.50;;;;;;;;;;4878051;29;20059;-77
2022/04/26 08:32:55;;;;;;;3.60;2.00;;;;;;;;;;4877287;29;20433;-78
2022/04/26 08:35:23;;;;;;;4.38;1.77;;;;;;;;;;4877615;29;20410;-76
2022/04/26 08:37:49;;;;;;;5.85;2.30;;;;;;;;;;4891906;29;20393;-78
2022/04/26 08:40:16;;;;;;;8.43;3.70;;;;;;;;;;4877695;29;20519;-77
2022/04/26 08:42:46;;;;;;;6.97;1.90;;;;;;;;;;4877550;29;20053;-78
2022/04/26 08:45:16;;;;;;;6.43;2.33;;;;;;;;;;4878390;29;20136;-79
2022/04/26 08:53:17;;;;;;;4.10;1.70;;;;;;;;;;4881130;29;20056;-78
2022/04/26 08:55:44;;;;;;;5.05;2.33;;;;;;;;;;4895176;29;20393;-78
2022/04/26 08:58:11;;;;;;;7.03;2.03;;;;;;;;;;4880943;29;20073;-79
2022/04/26 09:00:39;;;;;;;4.47;2.22;;;;;;;;;;4880840;29;20052;-78
2022/04/26 09:03:07;;;;;;;4.25;2.03;;;;;;;;;;4880465;29;20069;-78
2022/04/26 09:05:33;;;;;;;8.02;2.95;;;;;;;;;;4881081;29;20425;-77
2022/04/26 09:08:00;;;;;;;7.72;1.73;;;;;;;;;;4894969;29;20626;-78
2022/04/26 09:10:26;;;;;;;9.65;2.80;;;;;;;;;;4880711;29;20148;-77
2022/04/26 09:13:05;;;;;;;2.97;1.80;;;;;;;;;;4894774;29;20084;-78
2022/04/26 09:15:42;;;;;;;10.23;3.45;;;;;;;;;;4879460;29;20033;-77
2022/04/26 09:18:24;;;;;;;3.25;1.60;;;;;;;;;;4879310;29;20397;-77
2022/04/26 09:20:52;;;;;;;5.47;1.48;;;;;;;;;;4880832;29;20025;-77
2022/04/26 09:23:20;;;;;;;4.50;1.85;;;;;;;;;;4880770;29;20029;-78
2022/04/26 09:25:46;;;;;;;4.22;1.80;;;;;;;;;;4879959;29;20041;-78
2022/04/26 09:28:23;;;;;;;3.08;1.67;;;;;;;;;;4879746;29;20046;-77
2022/04/26 09:30:49;;;;;;;4.57;1.77;;;;;;;;;;4894700;29;20033;-78
2022/04/26 09:33:32;;;;;;;3.47;1.63;;;;;;;;;;4880325;29;20157;-81
2022/04/26 09:36:18;;;;;;;4.47;1.85;;;;;;;;;;4880284;29;20509;-79
2022/04/26 09:39:10;;;;;;;4.15;1.80;;;;;;;;;;4894566;29;20033;-79
2022/04/26 09:41:37;;;;;;;5.22;1.58;;;;;;;;;;4858831;29;20049;-79
2022/04/26 09:44:08;;;;;;;9.73;2.13;;;;;;;;;;4875661;29;20037;-78
2022/04/26 09:46:43;;;;;;;3.47;1.70;;;;;;;;;;4894316;29;20029;-77
2022/04/26 09:49:10;;;;;;;8.48;1.83;;;;;;;;;;4894247;29;20037;-78
2022/04/26 09:51:37;;;;;;;4.22;1.85;;;;;;;;;;4894212;29;20538;-77
2022/04/26 09:54:06;;;;;;;2.70;1.55;;;;;;;;;;4879672;29;20032;-77
2022/04/26 09:56:33;;;;;;;9.73;2.50;;;;;;;;;;4893086;29;20031;-77
2022/04/26 09:58:59;;;;;;;6.30;2.17;;;;;;;;;;4893982;29;20051;-77
2022/04/26 10:01:46;;;;;;;4.43;1.27;;;;;;;;;;4893651;29;20453;-76
2022/04/26 10:04:15;;;;;;;7.07;1.83;;;;;;;;;;4878305;29;20029;-78
2022/04/26 10:06:42;;;;;;;3.88;1.73;;;;;;;;;;4878613;29;20017;-79
2022/04/26 10:09:09;;;;;;;8.68;2.25;;;;;;;;;;4878467;29;20056;-78
2022/04/26 10:11:35;;;;;;;3.42;1.58;;;;;;;;;;4879230;29;20021;-74
2022/04/26 10:14:10;;;;;;;2.72;1.00;;;;;;;;;;4887322;29;20041;-75
2022/04/26 10:16:40;;;;;;;2.35;1.40;;;;;;;;;;4881946;29;20062;-75
2022/04/26 10:19:07;;;;;;;7.20;1.73;;;;;;;;;;4883112;29;20066;-75
2022/04/26 10:21:38;;;;;;;7.70;2.38;;;;;;;;;;4894221;29;20025;-76
2022/04/26 10:24:23;;;;;;;2.92;1.10;;;;;;;;;;4879749;29;20036;-75
2022/04/26 10:26:50;;;;;;;5.25;1.90;;;;;;;;;;4893505;29;20029;-76
2022/04/26 10:29:18;;;;;;;3.00;1.40;;;;;;;;;;4893275;29;20037;-75
2022/04/26 10:31:50;;;;;;;3.25;1.33;;;;;;;;;;4893408;29;20093;-75
2022/04/26 10:34:16;;;;;;;4.35;1.80;;;;;;;;;;4878865;29;20096;-75
2022/04/26 10:36:45;;;;;;;3.80;1.52;;;;;;;;;;4878907;29;20535;-75
2022/04/26 10:39:12;;;;;;;6.15;1.52;;;;;;;;;;4893118;29;20037;-75
2022/04/26 10:41:39;;;;;;;3.80;1.58;;;;;;;;;;4892759;29;20362;-76
2022/04/26 10:44:26;;;;;;;3.45;1.75;;;;;;;;;;4879041;29;20155;-77
2022/04/26 10:46:58;;;;;;;5.70;1.30;;;;;;;;;;4893307;29;20370;-74
2022/04/26 10:49:40;;;;;;;3.03;1.58;;;;;;;;;;4891854;29;20057;-76
2022/04/26 10:52:16;;;;;;;4.07;1.50;;;;;;;;;;4878426;29;20140;-76
2022/04/26 10:54:48;;;;;;;5.53;2.35;;;;;;;;;;4892781;29;20029;-76
2022/04/26 10:57:15;;;;;;;3.55;1.80;;;;;;;;;;4892842;29;20025;-76
2022/04/26 10:59:45;;;;;;;17.63;4.15;;;;;;;;;;4889934;29;20407;-77
2022/04/26 11:02:13;;;;;;;4.68;3.38;;;;;;;;;;4877427;29;20025;-76
2022/04/26 11:04:39;;;;;;;10.73;3.35;;;;;;;;;;4877496;29;20036;-78
2022/04/26 11:07:20;;;;;;;5.93;3.88;;;;;;;;;;4892994;29;20025;-78
2022/04/26 11:09:51;;;;;;;9.75;2.38;;;;;;;;;;4877581;29;20033;-78
2022/04/26 11:12:19;;;;;;;7.88;5.43;;;;;;;;;;4880598;29;20025;-75
2022/04/26 11:14:50;;;;;;;3.35;1.90;;;;;;;;;;4886627;29;20033;-75
2022/04/26 11:17:16;;;;;;;6.47;1.90;;;;;;;;;;4886368;29;20032;-77
2022/04/26 11:19:53;;;;;;;3.97;1.70;;;;;;;;;;4894672;29;20081;-76
2022/04/26 11:22:19;;;;;;;5.90;2.88;;;;;;;;;;4877891;29;20087;-76
2022/04/26 11:30:22;;;;;;;2.63;1.52;;;;;;;;;;4877820;29;20100;-77
2022/04/26 11:32:49;;;;;;;4.63;2.73;;;;;;;;;;4892571;29;20453;-75
2022/04/26 11:35:15;;;;;;;3.15;1.25;;;;;;;;;;4892359;29;20782;-77
2022/04/26 11:37:48;;;;;;;2.95;1.08;;;;;;;;;;4877782;29;20393;-77
2022/04/26 11:40:41;;;;;;;5.97;2.38;;;;;;;;;;4878375;29;20056;-77
2022/04/26 11:43:11;;;;;;;5.45;2.05;;;;;;;;;;4876452;29;20044;-76
2022/04/26 11:45:38;;;;;;;4.55;1.75;;;;;;;;;;4878146;29;20064;-78
2022/04/26 11:48:07;;;;;;;7.03;2.35;;;;;;;;;;4877736;29;20033;-76
2022/04/26 11:50:33;;;;;;;6.68;2.30;;;;;;;;;;4877698;29;20457;-77
2022/04/26 11:53:01;;;;;;;4.45;2.17;;;;;;;;;;4877708;29;20382;-77
2022/04/26 11:55:27;;;;;;;3.47;1.90;;;;;;;;;;4878240;29;20029;-77
2022/04/26 11:57:53;;;;;;;2.83;1.70;;;;;;;;;;4892336;29;20029;-76
2022/04/26 12:00:21;;;;;;;4.93;1.85;;;;;;;;;;4892174;29;20036;-75
2022/04/26 12:02:48;;;;;;;8.98;4.50;;;;;;;;;;4877223;29;20029;-76
2022/04/26 12:05:16;;;;;;;4.78;1.92;;;;;;;;;;4877853;29;20517;-79
2022/04/26 12:07:42;;;;;;;5.20;1.80;;;;;;;;;;4891978;29;20084;-77
2022/04/26 12:10:27;;;;;;;4.10;1.40;;;;;;;;;;4877880;29;20073;-78
2022/04/26 12:12:55;;;;;;;2.78;1.35;;;;;;;;;;4877905;29;20025;-79
2022/04/26 12:15:28;;;;;;;3.40;1.17;;;;;;;;;;4877710;29;20037;-78
2022/04/26 12:18:04;;;;;;;3.35;1.30;;;;;;;;;;4877623;29;20076;-78
2022/04/26 12:20:31;;;;;;;4.55;2.70;;;;;;;;;;4893151;29;20057;-77
2022/04/26 12:22:57;;;;;;;3.70;1.73;;;;;;;;;;4895478;29;20220;-78
2022/04/26 12:25:23;;;;;;;4.57;2.13;;;;;;;;;;4881450;29;20108;-78
2022/04/26 12:28:03;;;;;;;4.60;1.58;;;;;;;;;;4881163;29;20036;-78
2022/04/26 12:30:30;;;;;;;4.78;1.30;;;;;;;;;;4880988;29;20088;-78
2022/04/26 12:32:56;;;;;;;5.60;1.83;;;;;;;;;;4880813;29;20029;-75
2022/04/26 12:35:22;;;;;;;5.72;1.38;;;;;;;;;;4895666;29;20025;-77
2022/04/26 12:38:03;;;;;;;5.82;1.60;;;;;;;;;;4895820;29;20108;-77
2022/04/26 12:40:29;;;;;;;2.60;1.65;;;;;;;;;;4895129;29;20148;-77
2022/04/26 12:42:57;;;;;;;7.82;1.38;;;;;;;;;;4881158;29;20035;-78
2022/04/26 12:45:24;;;;;;;5.25;1.83;;;;;;;;;;4881581;29;20025;-79
2022/04/26 12:50:53;;;;;;;4.80;2.40;;;;;;;;;;4880589;29;20048;-76
2022/04/26 12:53:22;;;;;;;5.45;1.70;;;;;;;;;;4880810;29;20027;-75
2022/04/26 12:55:48;;;;;;;7.93;2.60;;;;;;;;;;4880740;29;20025;-79
2022/04/26 12:58:15;;;;;;;3.42;1.60;;;;;;;;;;4880977;29;20029;-75
2022/04/26 13:00:43;;;;;;;3.40;1.70;;;;;;;;;;4880746;29;20025;-77
2022/04/26 13:03:10;;;;;;;5.85;1.73;;;;;;;;;;4880305;29;20029;-75
2022/04/26 13:05:46;;;;;;;3.63;1.42;;;;;;;;;;4880513;29;20025;-77
2022/04/26 13:08:13;;;;;;;4.40;3.28;;;;;;;;;;4880473;29;20120;-78
2022/04/26 13:10:42;;;;;;;7.03;3.10;;;;;;;;;;4880804;29;20025;-78
2022/04/26 13:13:09;;;;;;;5.90;2.10;;;;;;;;;;4892474;29;20025;-79
2022/04/26 13:15:35;;;;;;;2.75;1.77;;;;;;;;;;4880676;29;20099;-78
2022/04/26 13:18:03;;;;;;;4.65;1.42;;;;;;;;;;4894874;29;20025;-78
2022/04/26 13:20:29;;;;;;;3.08;1.42;;;;;;;;;;4880695;29;20025;-78
2022/04/26 13:22:56;;;;;;;5.70;2.28;;;;;;;;;;4880440;29;20033;-75
2022/04/26 13:25:22;;;;;;;13.38;3.40;;;;;;;;;;4894149;29;20029;-76
2022/04/26 13:27:48;;;;;;;4.90;2.10;;;;;;;;;;4894690;29;20041;-76
2022/04/26 13:30:15;;;;;;;10.77;8.52;;;;;;;;;;4894095;29;20029;-78
2022/04/26 13:32:41;;;;;;;11.10;5.32;;;;;;;;;;4879279;29;20470;-75
2022/04/26 13:35:08;;;;;;;7.30;3.28;;;;;;;;;;4879382;29;20017;-76
2022/04/26 13:37:34;;;;;;;5.15;2.28;;;;;;;;;;4894236;29;20488;-78
2022/04/26 13:40:01;;;;;;;10.20;8.35;;;;;;;;;;4879544;29;20057;-76
2022/04/26 13:42:30;;;;;;;8.63;2.00;;;;;;;;;;4867651;29;20377;-78
2022/04/26 13:44:56;;;;;;;5.57;2.08;;;;;;;;;;4880241;29;20097;-78
2022/04/26 13:47:22;;;;;;;10.15;1.73;;;;;;;;;;4892231;29;20060;-77
2022/04/26 13:49:48;;;;;;;3.85;1.60;;;;;;;;;;4880245;29;20030;-78
2022/04/26 13:52:15;;;;;;;4.70;1.83;;;;;;;;;;4879983;29;20033;-79
2022/04/26 13:54:42;;;;;;;4.93;1.60;;;;;;;;;;4880012;29;20025;-74
2022/04/26 13:57:08;;;;;;;5.47;2.20;;;;;;;;;;4879723;29;20500;-76
2022/04/26 13:59:35;;;;;;;3.65;1.77;;;;;;;;;;4879473;29;20485;-78
2022/04/26 14:02:01;;;;;;;4.00;1.77;;;;;;;;;;4879628;29;20537;-77
2022/04/26 14:04:27;;;;;;;5.00;1.70;;;;;;;;;;4880030;29;20032;-78
2022/04/26 14:06:53;;;;;;;4.97;2.13;;;;;;;;;;4879501;29;20370;-74
2022/04/26 14:09:21;;;;;;;3.50;1.52;;;;;;;;;;4893967;29;20053;-77
2022/04/26 14:11:47;;;;;;;3.42;2.35;;;;;;;;;;4879355;29;20025;-79
2022/04/26 14:22:32;;;;;;;4.80;1.70;;;;;;;;;;4861283;29;20045;-75
2022/04/26 14:25:03;;;;;;;13.20;2.75;;;;;;;;;;4861172;29;20025;-76
2022/04/26 14:27:30;;;;;;;5.90;2.63;;;;;;;;;;4876179;29;20034;-75
2022/04/26 14:29:56;;;;;;;3.92;2.17;;;;;;;;;;4869235;29;20022;-78
2022/04/26 14:32:22;;;;;;;8.90;3.00;;;;;;;;;;4874482;29;20037;-77
2022/04/26 14:34:48;;;;;;;4.30;1.60;;;;;;;;;;4859875;29;20060;-77
2022/04/26 14:37:15;;;;;;;3.55;1.80;;;;;;;;;;4860595;29;20021;-77
2022/04/26 14:39:41;;;;;;;3.10;1.70;;;;;;;;;;4860403;29;20037;-77
2022/04/26 14:42:08;;;;;;;4.30;2.83;;;;;;;;;;4874630;29;20121;-77
2022/04/26 14:44:34;;;;;;;7.15;2.70;;;;;;;;;;4859424;29;20028;-78
2022/04/26 14:47:02;;;;;;;10.43;5.68;;;;;;;;;;4874229;29;20037;-79
2022/04/26 14:49:28;;;;;;;7.60;4.75;;;;;;;;;;4864210;29;20036;-77
2022/04/26 14:51:55;;;;;;;5.88;2.65;;;;;;;;;;4875104;29;20125;-78
2022/04/26 14:54:21;;;;;;;5.30;1.80;;;;;;;;;;4862167;29;20029;-76
2022/04/26 14:56:47;;;;;;;3.03;1.50;;;;;;;;;;4873795;29;20125;-80
2022/04/26 14:59:14;;;;;;;5.15;3.80;;;;;;;;;;4874330;29;20108;-78
2022/04/26 15:01:46;;;;;;;4.95;2.58;;;;;;;;;;4859939;29;20037;-76
2022/04/26 15:04:12;;;;;;;4.22;2.25;;;;;;;;;;4874392;29;20140;-76
2022/04/26 15:06:38;;;;;;;4.65;2.13;;;;;;;;;;4859910;29;20477;-79
2022/04/26 15:16:37;;;;;;;6.03;1.55;;;;;;;;;;4859701;29;20049;-77
2022/04/26 15:17:19;;;;;;;3.75;1.98;;;;;;;;;;4862747;29;20048;-79
2022/04/26 15:19:48;;;;;;;6.03;4.72;;;;;;;;;;4864778;29;20021;-77
2022/04/26 15:22:14;;;;;;;7.13;2.63;;;;;;;;;;4874542;29;20131;-77
2022/04/26 15:24:40;;;;;;;6.90;2.22;;;;;;;;;;4876132;29;20017;-78
2022/04/26 15:27:06;;;;;;;4.60;2.30;;;;;;;;;;4861246;29;20028;-78
2022/04/26 15:29:33;;;;;;;3.47;1.80;;;;;;;;;;4859053;29;20045;-77
2022/04/26 15:31:59;;;;;;;4.05;1.75;;;;;;;;;;4880933;29;20021;-78
2022/04/26 15:34:25;;;;;;;7.55;2.05;;;;;;;;;;4875262;29;20025;-76
2022/04/26 15:36:51;;;;;;;8.23;3.13;;;;;;;;;;4860794;29;20025;-78
2022/04/26 15:39:17;;;;;;;2.88;1.65;;;;;;;;;;4859249;29;20025;-79
2022/04/26 15:41:43;;;;;;;4.47;2.90;;;;;;;;;;4858485;29;20054;-79
2022/04/26 15:44:09;;;;;;;6.90;2.78;;;;;;;;;;4877988;29;20477;-78
2022/04/26 15:46:35;;;;;;;6.22;3.10;;;;;;;;;;4879631;29;20033;-78
2022/04/26 15:49:02;;;;;;;8.77;3.00;;;;;;;;;;4877852;29;20029;-80
2022/04/26 15:51:28;;;;;;;14.48;9.50;;;;;;;;;;4878223;29;20047;-78
2022/04/26 15:53:54;;;;;;;10.52;3.25;;;;;;;;;;4890507;29;20029;-78
2022/04/26 15:56:20;;;;;;;4.85;3.38;;;;;;;;;;4872199;29;20029;-79
2022/04/26 15:58:47;;;;;;;4.00;1.98;;;;;;;;;;4873776;29;20026;-77
2022/04/26 16:01:13;;;;;;;10.18;7.70;;;;;;;;;;4858940;29;20025;-78
2022/04/26 16:03:41;;;;;;;5.75;2.35;;;;;;;;;;4873250;29;20422;-76
2022/04/26 16:06:07;;;;;;;8.65;2.35;;;;;;;;;;4875092;29;20121;-76
2022/04/26 16:08:35;;;;;;;8.73;4.25;;;;;;;;;;4875299;29;20045;-79
2022/04/26 16:22:02;;;;;;;13.93;4.80;;;;;;;;;;4877287;29;20032;-77
2022/04/26 16:24:28;;;;;;;3.05;2.03;;;;;;;;;;4878124;29;20107;-77
2022/04/26 16:26:55;;;;;;;11.13;2.75;;;;;;;;;;4878014;29;20022;-76
2022/04/26 16:29:21;;;;;;;4.97;3.13;;;;;;;;;;4878099;29;20086;-77
2022/04/26 16:31:48;;;;;;;16.48;3.88;;;;;;;;;;4877943;29;20469;-77
2022/04/26 16:34:14;;;;;;;4.78;2.28;;;;;;;;;;4879271;29;20507;-79
2022/04/26 16:36:41;;;;;;;3.67;1.92;;;;;;;;;;4878261;29;20111;-77
2022/04/26 16:39:07;;;;;;;10.55;2.25;;;;;;;;;;4878101;29;20025;-79
2022/04/26 16:41:34;;;;;;;14.23;12.70;;;;;;;;;;4877977;29;20057;-78
2022/04/26 16:44:00;;;;;;;4.32;1.70;;;;;;;;;;4877517;29;20036;-77
2022/04/26 16:46:29;;;;;;;6.93;2.03;;;;;;;;;;4891797;29;20252;-79
2022/04/26 16:48:56;;;;;;;5.78;1.67;;;;;;;;;;4877499;29;20033;-77
2022/04/26 16:51:22;;;;;;;8.43;2.10;;;;;;;;;;4877086;29;20053;-79
2022/04/26 16:53:48;;;;;;;5.32;1.67;;;;;;;;;;4877356;29;20057;-77
2022/04/26 16:56:15;;;;;;;4.35;2.10;;;;;;;;;;4891777;29;20033;-75
2022/04/26 16:58:41;;;;;;;6.10;3.58;;;;;;;;;;4877546;29;20037;-77
2022/04/26 17:01:07;;;;;;;6.43;4.10;;;;;;;;;;4877641;29;20025;-78
2022/04/26 17:03:33;;;;;;;9.65;4.90;;;;;;;;;;4891642;29;20093;-78
2022/04/26 17:06:00;;;;;;;9.07;4.35;;;;;;;;;;4877589;29;20374;-76
2022/04/26 17:08:26;;;;;;;6.82;3.25;;;;;;;;;;4880283;29;20028;-80
2022/04/26 17:10:53;;;;;;;7.07;2.95;;;;;;;;;;4880973;29;20029;-77
2022/04/26 17:13:19;;;;;;;5.38;2.30;;;;;;;;;;4880266;29;20510;-77
2022/04/26 17:15:46;;;;;;;7.28;2.10;;;;;;;;;;4880376;29;20149;-77
2022/04/26 17:18:14;;;;;;;6.03;4.40;;;;;;;;;;4880840;29;20091;-78
2022/04/26 17:20:40;;;;;;;5.15;2.65;;;;;;;;;;4880589;29;20096;-76
2022/04/26 17:23:07;;;;;;;5.43;3.00;;;;;;;;;;4880729;29;20492;-77
2022/04/26 17:25:34;;;;;;;5.53;3.08;;;;;;;;;;4880306;29;20495;-78
2022/04/26 17:28:01;;;;;;;6.57;3.35;;;;;;;;;;4880720;29;20064;-77
2022/04/26 17:30:27;;;;;;;11.60;3.22;;;;;;;;;;4880454;29;20101;-77
2022/04/26 17:32:53;;;;;;;10.27;3.17;;;;;;;;;;4880208;29;20097;-79
2022/04/26 17:35:19;;;;;;;7.15;4.15;;;;;;;;;;4880230;29;20036;-76
2022/04/26 17:37:46;;;;;;;7.20;3.17;;;;;;;;;;4894481;29;20080;-77
2022/04/26 17:40:14;;;;;;;5.53;3.40;;;;;;;;;;4879969;29;20052;-79
2022/04/26 17:42:41;;;;;;;7.05;3.17;;;;;;;;;;4879915;29;20025;-79
2022/04/26 17:45:08;;;;;;;7.32;4.20;;;;;;;;;;4894398;29;20030;-79
2022/04/26 17:47:35;;;;;;;11.35;4.47;;;;;;;;;;4879952;29;20037;-78
2022/04/26 17:50:02;;;;;;;9.45;4.70;;;;;;;;;;4879900;29;20065;-78
2022/04/26 17:52:28;;;;;;;7.63;5.13;;;;;;;;;;4879853;29;20029;-78
2022/04/26 17:57:39;;;;;;;9.63;5.07;;;;;;;;;;4879939;29;20179;-79
2022/04/26 18:00:11;;;;;;;8.63;4.97;;;;;;;;;;4879375;29;20032;-78
2022/04/26 18:02:38;;;;;;;10.07;4.80;;;;;;;;;;4893833;29;20477;-79
2022/04/26 18:05:04;;;;;;;11.32;5.68;;;;;;;;;;4893891;29;20025;-78
2022/04/26 18:07:30;;;;;;;13.85;6.07;;;;;;;;;;4893838;29;20032;-76
2022/04/26 18:09:56;;;;;;;11.90;7.82;;;;;;;;;;4893853;29;20045;-75
2022/04/26 18:12:22;;;;;;;11.45;5.60;;;;;;;;;;4879130;29;20473;-77
2022/04/26 18:14:48;;;;;;;8.35;4.88;;;;;;;;;;4893936;29;20036;-78
2022/04/26 18:17:15;;;;;;;9.05;4.32;;;;;;;;;;4879063;29;20033;-79
2022/04/26 18:19:41;;;;;;;6.45;3.80;;;;;;;;;;4879119;29;20107;-78
2022/04/26 18:22:07;;;;;;;12.13;5.43;;;;;;;;;;4893539;29;20476;-77
2022/04/26 18:24:33;;;;;;;12.70;5.40;;;;;;;;;;4893583;29;20026;-78
2022/04/26 18:26:59;;;;;;;10.35;6.28;;;;;;;;;;4886785;29;20089;-76
2022/04/26 18:29:26;;;;;;;11.60;6.03;;;;;;;;;;4887365;29;20033;-77
2022/04/26 18:31:53;;;;;;;16.65;8.38;;;;;;;;;;4868081;29;20026;-76
2022/04/26 18:34:19;;;;;;;10.55;6.00;;;;;;;;;;4870534;29;20100;-77
2022/04/26 18:36:50;;;;;;;9.18;6.22;;;;;;;;;;4887034;29;20073;-79
2022/04/26 18:39:16;;;;;;;13.90;6.28;;;;;;;;;;4881244;29;20034;-77
2022/04/26 18:41:43;;;;;;;15.73;6.68;;;;;;;;;;4889501;29;20461;-77
2022/04/26 18:44:11;;;;;;;10.73;5.72;;;;;;;;;;4882700;29;20025;-76
2022/04/26 18:46:38;;;;;;;11.02;7.00;;;;;;;;;;4882769;29;20032;-80
2022/04/26 18:49:04;;;;;;;13.00;5.90;;;;;;;;;;4884517;29;20064;-76
2022/04/26 18:51:31;;;;;;;14.43;8.00;;;;;;;;;;4882173;29;20488;-78
2022/04/26 18:53:58;;;;;;;17.88;11.05;;;;;;;;;;4870112;29;20089;-76
2022/04/26 18:56:24;;;;;;;33.92;18.75;;;;;;;;;;4865463;29;20076;-76
2022/04/26 18:58:50;;;;;;;25.75;18.92;;;;;;;;;;4870144;29;20127;-80
2022/04/26 19:01:17;;;;;;;29.05;17.38;;;;;;;;;;4869921;29;20026;-76
2022/04/26 19:03:45;;;;;;;27.40;15.40;;;;;;;;;;4878196;29;20028;-76
2022/04/26 19:06:11;;;;;;;16.75;11.43;;;;;;;;;;4884262;29;20021;-77
2022/04/26 19:08:37;;;;;;;29.10;18.90;;;;;;;;;;4873387;29;20040;-78